createdAt,value
2019-02-28T00:00:55.491Z,8.00
2019-02-28T00:15:50.578Z,8.35
2019-02-28T00:30:50.436Z,8.03
2019-02-28T00:45:51.835Z,8.65
2019-02-28T01:00:51.788Z,9.38
2019-02-28T01:15:51.129Z,9.50
2019-02-28T01:30:51.604Z,9.70
2019-02-28T01:45:50.459Z,10.90
2019-02-28T02:00:50.419Z,11.15
2019-02-28T02:15:52.102Z,10.88
2019-02-28T02:30:52.682Z,11.12
2019-02-28T02:45:50.614Z,10.53
2019-02-28T03:00:53.608Z,10.88
2019-02-28T03:15:50.430Z,11.05
2019-02-28T03:30:50.863Z,10.60
2019-02-28T03:45:50.732Z,10.25
2019-02-28T04:00:54.338Z,9.98
2019-02-28T04:16:07.404Z,9.18
2019-02-28T04:30:59.715Z,8.73
2019-02-28T04:45:51.104Z,9.28
2019-02-28T05:00:57.338Z,8.85
2019-02-28T05:15:51.576Z,7.35
2019-02-28T05:30:53.681Z,8.18
2019-02-28T05:45:51.089Z,8.70
2019-02-28T06:00:50.991Z,8.45
2019-02-28T06:15:51.396Z,8.20
2019-02-28T06:30:51.349Z,9.05
2019-02-28T06:45:51.298Z,10.15
2019-02-28T07:00:51.184Z,11.12
2019-02-28T07:15:51.625Z,10.65
2019-02-28T07:30:51.443Z,11.12
2019-02-28T07:45:52.226Z,11.18
2019-02-28T08:00:52.661Z,11.50
2019-02-28T08:15:53.368Z,11.93
2019-02-28T08:30:54.723Z,11.88
2019-02-28T08:45:50.456Z,11.03
2019-02-28T09:00:50.444Z,11.22
2019-02-28T09:15:51.439Z,11.50
2019-02-28T09:30:50.023Z,10.15
2019-02-28T09:45:50.818Z,10.20
2019-02-28T10:00:51.740Z,11.15
2019-02-28T10:15:50.973Z,11.50
2019-02-28T10:30:52.078Z,12.37
2019-02-28T10:45:50.951Z,9.80
2019-02-28T11:00:53.175Z,9.13
2019-02-28T11:15:54.163Z,8.80
2019-02-28T11:30:52.995Z,9.23
2019-02-28T11:45:50.267Z,9.45
2019-02-28T12:00:51.463Z,6.45
2019-02-28T12:15:51.683Z,5.70
2019-02-28T12:30:50.571Z,6.62
2019-02-28T12:45:53.594Z,5.95
2019-02-28T13:00:50.587Z,5.95
2019-02-28T13:15:51.020Z,5.20
2019-02-28T13:30:52.197Z,5.20
2019-02-28T13:45:55.943Z,4.78
2019-02-28T14:00:51.739Z,4.85
2019-02-28T14:15:53.320Z,5.58
2019-02-28T14:30:54.434Z,5.12
2019-02-28T14:45:51.004Z,4.58
2019-02-28T15:00:52.812Z,5.65
2019-02-28T15:15:53.201Z,3.80
2019-02-28T15:30:51.255Z,3.75
2019-02-28T15:45:51.181Z,4.60
2019-02-28T16:00:53.798Z,5.00
2019-02-28T16:15:51.400Z,5.70
2019-02-28T16:30:54.606Z,6.60
2019-02-28T16:45:51.840Z,7.35
2019-02-28T17:00:52.449Z,6.12
2019-02-28T17:16:01.379Z,7.05
2019-02-28T17:45:51.711Z,5.25
2019-02-28T18:45:53.569Z,6.30
2019-02-28T19:00:51.816Z,5.33
2019-02-28T19:15:53.883Z,6.17
2019-02-28T19:30:54.204Z,6.00
2019-02-28T19:45:54.326Z,5.10
2019-02-28T20:00:53.464Z,5.95
2019-02-28T20:15:59.211Z,6.72
2019-02-28T20:30:53.099Z,6.03
2019-02-28T20:45:52.112Z,5.67
2019-02-28T21:15:51.163Z,5.65
2019-02-28T21:30:51.248Z,5.87
2019-02-28T21:45:51.062Z,16.50
2019-02-28T22:00:52.948Z,15.68
2019-02-28T22:15:51.655Z,16.12
2019-02-28T22:45:52.945Z,13.70
2019-02-28T23:00:59.755Z,13.70
2019-02-28T23:15:51.221Z,14.07
2019-02-28T23:45:51.048Z,14.25
